Time;durP1;ratioP1;P1;durP2;ratioP2;P2;SDS_P1;SDS_P2;PMS_P1;PMS_P2;Temp;Humidity;BMP_temperature;BMP_pressure;BME280_temperature;BME280_humidity;BME280_pressure;Samples;Min_cycle;Max_cycle;Signal;HPM_P1;HPM_P2
2021/09/04 00:00:33;;;;;;;6.43;4.10;;;19.20;71.00;;;;;;21044209;28;20081;-79
2021/09/04 00:10:33;;;;;;;7.75;4.43;;;19.20;71.00;;;;;;21025351;28;20040;-78
2021/09/04 00:20:34;;;;;;;6.20;4.28;;;19.20;71.00;;;;;;21042581;28;20028;-79
2021/09/04 00:30:36;;;;;;;7.32;4.05;;;19.20;71.00;;;;;;21057957;28;20155;-78
2021/09/04 00:40:36;;;;;;;6.93;4.47;;;19.20;70.90;;;;;;21057437;28;20118;-78
2021/09/04 00:50:38;;;;;;;5.38;3.38;;;19.20;71.00;;;;;;21040057;28;20044;-78
2021/09/04 01:00:40;;;;;;;6.97;4.40;;;19.20;70.90;;;;;;21040855;28;20067;-78
2021/09/04 01:10:42;;;;;;;7.63;4.75;;;19.20;70.90;;;;;;21022689;28;20044;-78
2021/09/04 01:20:43;;;;;;;6.13;4.13;;;19.20;70.90;;;;;;21022002;28;20055;-78
2021/09/04 01:30:45;;;;;;;7.28;4.15;;;19.20;71.50;;;;;;21038256;28;20064;-79
2021/09/04 01:40:46;;;;;;;5.50;3.72;;;19.20;70.70;;;;;;21054293;28;20039;-78
2021/09/04 01:50:47;;;;;;;6.88;3.70;;;19.20;70.60;;;;;;21037317;28;20077;-79
2021/09/04 02:00:48;;;;;;;6.75;4.57;;;19.20;70.50;;;;;;21036591;28;20060;-79
2021/09/04 02:10:49;;;;;;;8.27;4.47;;;19.10;70.30;;;;;;21027246;28;20036;-79
2021/09/04 02:20:49;;;;;;;6.22;4.55;;;19.10;70.20;;;;;;21037557;28;20111;-79
2021/09/04 02:30:50;;;;;;;6.70;4.60;;;19.10;70.10;;;;;;21036807;28;20557;-79
2021/09/04 02:40:51;;;;;;;6.82;3.75;;;19.10;70.00;;;;;;21031623;28;20036;-78
2021/09/04 02:50:52;;;;;;;9.75;4.72;;;19.10;69.90;;;;;;21049804;28;20032;-79
2021/09/04 03:00:54;;;;;;;5.45;4.03;;;19.10;69.80;;;;;;21083521;28;20031;-79
2021/09/04 03:10:55;;;;;;;7.23;4.20;;;19.10;69.80;;;;;;21031550;28;20097;-79
2021/09/04 03:20:56;;;;;;;7.18;3.80;;;19.10;69.70;;;;;;21014161;28;20032;-78
2021/09/04 03:30:56;;;;;;;7.72;3.75;;;19.10;69.70;;;;;;21031103;28;20077;-79
2021/09/04 03:40:59;;;;;;;5.15;3.15;;;19.10;69.60;;;;;;21030243;28;20130;-78
2021/09/04 03:51:00;;;;;;;6.15;3.22;;;19.00;69.60;;;;;;21026923;28;20082;-78
2021/09/04 04:01:01;;;;;;;5.30;3.47;;;19.10;69.60;;;;;;21027594;28;20032;-79
2021/09/04 04:11:09;;;;;;;6.35;3.58;;;19.10;69.50;;;;;;21043387;28;20086;-78
2021/09/04 04:21:10;;;;;;;4.53;2.75;;;19.10;69.50;;;;;;21026301;28;20032;-79
2021/09/04 04:31:11;;;;;;;4.53;2.70;;;19.10;69.50;;;;;;21025351;28;20050;-79
2021/09/04 04:41:11;;;;;;;4.80;2.78;;;19.10;69.40;;;;;;21042605;28;20407;-80
2021/09/04 04:51:12;;;;;;;6.25;3.28;;;19.10;69.40;;;;;;21040726;28;20127;-79
2021/09/04 05:01:13;;;;;;;5.03;3.35;;;19.00;69.40;;;;;;21040036;28;20035;-79
2021/09/04 05:11:13;;;;;;;5.18;3.00;;;19.00;69.40;;;;;;21022267;28;20058;-79
2021/09/04 05:21:15;;;;;;;3.92;2.78;;;19.00;69.40;;;;;;21023187;28;20063;-79
2021/09/04 05:31:16;;;;;;;4.05;2.90;;;19.00;69.40;;;;;;21038715;28;20071;-78
2021/09/04 05:41:17;;;;;;;4.00;2.83;;;19.00;69.40;;;;;;21022732;28;20028;-78
2021/09/04 05:51:18;;;;;;;5.35;2.65;;;19.00;69.40;;;;;;21037497;28;20036;-79
2021/09/04 06:01:19;;;;;;;8.65;3.80;;;19.00;69.30;;;;;;21036904;28;20044;-79
2021/09/04 06:11:19;;;;;;;5.77;3.07;;;19.00;69.20;;;;;;21042974;28;20043;-79
2021/09/04 06:21:20;;;;;;;5.97;2.70;;;19.00;69.20;;;;;;21051667;28;20368;-78
2021/09/04 06:31:21;;;;;;;4.80;2.15;;;19.00;69.20;;;;;;21033965;28;20179;-77
2021/09/04 06:41:21;;;;;;;4.57;2.55;;;19.00;69.10;;;;;;21050404;28;20469;-75
2021/09/04 06:51:23;;;;;;;4.05;2.53;;;19.00;69.00;;;;;;21049676;28;20719;-77
2021/09/04 07:01:26;;;;;;;3.50;1.90;;;18.90;68.90;;;;;;21064815;28;20024;-79
2021/09/04 07:11:27;;;;;;;6.25;2.58;;;18.90;68.80;;;;;;20956212;28;20049;-82
2021/09/04 07:21:27;;;;;;;3.40;2.35;;;18.90;68.80;;;;;;20944477;28;20035;-85
2021/09/04 07:31:28;;;;;;;4.70;2.40;;;18.90;68.80;;;;;;20938384;28;20044;-87
2021/09/04 07:41:29;;;;;;;2.33;1.60;;;18.90;68.60;;;;;;20958261;28;20429;-85
2021/09/04 07:51:30;;;;;;;5.20;2.22;;;18.90;68.70;;;;;;20970625;28;20036;-87
2021/09/04 08:01:31;;;;;;;2.83;1.77;;;18.90;68.70;;;;;;20986299;28;20059;-89
2021/09/04 08:11:33;;;;;;;3.45;1.90;;;18.90;68.60;;;;;;21010247;28;20485;-90
2021/09/04 08:21:36;;;;;;;5.82;2.65;;;18.90;68.50;;;;;;21068313;28;20032;-90
2021/09/04 08:31:45;;;;;;;4.45;1.90;;;18.90;68.50;;;;;;21084738;28;20493;-90
2021/09/04 08:41:46;;;;;;;2.60;1.65;;;18.90;68.40;;;;;;21057672;28;20032;-85
2021/09/04 08:51:53;;;;;;;7.22;2.20;;;18.90;68.30;;;;;;21047150;28;20039;-86
2021/09/04 09:01:55;;;;;;;2.85;1.80;;;18.90;68.40;;;;;;21029782;28;20075;-80
2021/09/04 09:11:57;;;;;;;3.38;1.88;;;18.90;68.30;;;;;;21060911;28;20139;-78
2021/09/04 09:21:57;;;;;;;3.10;1.48;;;18.90;68.20;;;;;;21024731;28;20036;-79
2021/09/04 09:32:05;;;;;;;4.15;1.58;;;18.90;67.90;;;;;;21054625;28;20444;-79
2021/09/04 09:42:08;;;;;;;3.75;2.05;;;19.00;67.90;;;;;;21026333;28;20467;-78
2021/09/04 09:52:13;;;;;;;3.55;1.77;;;19.00;68.50;;;;;;21055481;28;20040;-79
2021/09/04 10:02:14;;;;;;;5.00;1.87;;;19.00;67.70;;;;;;21055104;28;20467;-78
2021/09/04 10:12:15;;;;;;;4.68;2.13;;;19.00;67.70;;;;;;21459621;22;20056;-77
2021/09/04 10:22:16;;;;;;;3.60;1.35;;;19.00;67.70;;;;;;21118903;28;20069;-80
2021/09/04 10:32:18;;;;;;;5.13;1.75;;;19.00;67.60;;;;;;21146709;28;20027;-79
2021/09/04 10:42:34;;;;;;;3.72;1.67;;;19.00;67.50;;;;;;21188150;28;20031;-83
2021/09/04 10:52:50;;;;;;;2.97;1.48;;;19.00;67.60;;;;;;21173521;28;20043;-83
2021/09/04 11:03:00;;;;;;;2.37;1.27;;;19.00;67.60;;;;;;21181561;28;20469;-80
2021/09/04 11:13:13;;;;;;;3.22;1.80;;;19.00;67.70;;;;;;21156362;28;20305;-74
2021/09/04 11:23:27;;;;;;;2.55;1.60;;;19.00;67.70;;;;;;21171040;28;20024;-84
2021/09/04 11:33:34;;;;;;;2.28;1.40;;;19.00;67.60;;;;;;21159534;28;20031;-81
2021/09/04 11:43:35;;;;;;;3.13;1.67;;;19.00;67.50;;;;;;21081953;28;20095;-89
2021/09/04 11:53:37;;;;;;;2.85;1.75;;;19.00;67.40;;;;;;21102784;28;20032;-80
2021/09/04 12:03:38;;;;;;;3.90;1.35;;;19.00;67.40;;;;;;21053547;28;20067;-83
2021/09/04 12:13:40;;;;;;;3.55;1.90;;;19.00;67.30;;;;;;21068881;28;20089;-80
2021/09/04 12:23:46;;;;;;;2.60;1.50;;;19.00;68.00;;;;;;21084199;28;20048;-81
2021/09/04 12:33:53;;;;;;;7.25;1.90;;;19.00;67.40;;;;;;21086546;28;20032;-83
2021/09/04 12:44:29;;;;;;;4.68;2.00;;;19.10;68.30;;;;;;21071859;28;20028;-79
2021/09/04 12:54:49;;;;;;;6.47;1.80;;;19.10;67.70;;;;;;21067524;28;20032;-79
2021/09/04 13:05:01;;;;;;;3.83;2.08;;;19.10;67.70;;;;;;21067740;28;20040;-75
2021/09/04 13:15:06;;;;;;;2.65;1.77;;;19.10;67.80;;;;;;21046419;28;20040;-78
2021/09/04 13:25:10;;;;;;;5.05;1.83;;;19.10;67.80;;;;;;21062780;28;20196;-80
2021/09/04 13:35:12;;;;;;;5.70;1.88;;;19.20;67.70;;;;;;21047913;28;20048;-82
2021/09/04 13:45:13;;;;;;;3.58;1.80;;;19.10;67.60;;;;;;21037059;28;20131;-78
2021/09/04 13:55:14;;;;;;;5.78;1.85;;;19.10;67.80;;;;;;21081234;28;20056;-77
2021/09/04 14:05:15;;;;;;;6.13;2.50;;;19.20;68.00;;;;;;21046852;28;20028;-83
2021/09/04 14:15:15;;;;;;;8.27;3.10;;;19.20;68.00;;;;;;21035711;28;20290;-81
2021/09/04 14:25:19;;;;;;;4.07;1.92;;;19.20;67.80;;;;;;21040253;28;20024;-84
2021/09/04 14:35:19;;;;;;;5.82;2.13;;;19.20;68.50;;;;;;21050304;28;20028;-81
2021/09/04 14:45:30;;;;;;;4.65;2.60;;;19.30;67.90;;;;;;21148126;28;20457;-85
2021/09/04 14:55:31;;;;;;;4.53;2.15;;;19.20;67.90;;;;;;21156284;28;20120;-73
2021/09/04 15:05:32;;;;;;;5.37;1.90;;;19.30;67.90;;;;;;21047114;28;20028;-76
2021/09/04 15:15:32;;;;;;;5.05;2.70;;;19.30;67.80;;;;;;21047544;28;20286;-76
2021/09/04 15:25:34;;;;;;;3.90;2.38;;;19.40;67.70;;;;;;21046648;28;20051;-77
2021/09/04 15:35:37;;;;;;;3.47;2.17;;;19.50;67.60;;;;;;21080693;28;20121;-78
2021/09/04 15:45:38;;;;;;;4.47;2.38;;;19.50;67.40;;;;;;21046514;28;20036;-77
2021/09/04 15:55:40;;;;;;;5.85;2.50;;;19.60;67.40;;;;;;21078057;28;20097;-77
2021/09/04 16:05:41;;;;;;;3.03;2.22;;;19.50;67.50;;;;;;21078285;28;20040;-78
2021/09/04 16:15:42;;;;;;;3.83;2.28;;;19.50;67.50;;;;;;21043908;28;20039;-77
2021/09/04 16:25:43;;;;;;;3.95;2.53;;;19.50;67.60;;;;;;21075687;28;20040;-76
2021/09/04 16:35:44;;;;;;;6.00;2.50;;;19.60;67.60;;;;;;21058583;28;20042;-76
2021/09/04 16:45:44;;;;;;;3.70;2.20;;;19.60;67.50;;;;;;21073534;28;20056;-76
2021/09/04 16:55:45;;;;;;;4.72;2.30;;;19.50;67.40;;;;;;21056722;28;20044;-79
2021/09/04 17:05:45;;;;;;;3.53;2.13;;;19.50;67.40;;;;;;21056514;28;20432;-77
2021/09/04 17:15:47;;;;;;;5.82;2.38;;;19.60;67.60;;;;;;21056689;28;20093;-75
2021/09/04 17:25:48;;;;;;;5.07;2.30;;;19.50;67.60;;;;;;21057272;28;20486;-76
2021/09/04 17:35:49;;;;;;;6.03;2.75;;;19.50;67.80;;;;;;21055686;28;20036;-76
2021/09/04 17:45:49;;;;;;;4.32;2.80;;;19.40;67.90;;;;;;21071898;28;20043;-76
2021/09/04 17:55:50;;;;;;;4.60;2.78;;;19.40;68.00;;;;;;21055247;28;20070;-77
2021/09/04 18:05:51;;;;;;;3.90;2.33;;;19.40;68.10;;;;;;21076707;28;20039;-76
2021/09/04 18:15:52;;;;;;;5.38;3.10;;;19.30;68.10;;;;;;21056255;28;20035;-76
2021/09/04 18:25:53;;;;;;;4.35;2.80;;;19.30;68.20;;;;;;21054664;28;20066;-75
2021/09/04 18:35:54;;;;;;;3.72;2.22;;;19.30;68.30;;;;;;21090480;28;20042;-75
2021/09/04 18:45:54;;;;;;;4.45;2.70;;;19.30;68.30;;;;;;21056125;28;20036;-75
2021/09/04 18:55:55;;;;;;;5.13;3.03;;;19.20;68.20;;;;;;21087700;28;20039;-76
2021/09/04 19:05:55;;;;;;;4.38;2.28;;;19.20;68.20;;;;;;21071505;28;20169;-74
2021/09/04 19:15:57;;;;;;;5.10;3.17;;;19.20;68.10;;;;;;21051793;28;20043;-77
2021/09/04 19:25:58;;;;;;;4.95;3.00;;;19.20;68.00;;;;;;21085338;28;20119;-75
2021/09/04 19:36:00;;;;;;;3.97;2.50;;;19.20;68.10;;;;;;21051614;28;20120;-74
2021/09/04 19:46:02;;;;;;;4.15;2.42;;;19.20;68.00;;;;;;21051544;28;20036;-75
2021/09/04 19:56:03;;;;;;;3.88;2.65;;;19.10;67.90;;;;;;21066543;28;20034;-74
2021/09/04 20:06:03;;;;;;;4.68;2.80;;;19.10;67.80;;;;;;21049524;28;20060;-75
2021/09/04 20:16:04;;;;;;;4.80;2.63;;;19.10;67.70;;;;;;21050371;28;20068;-75
2021/09/04 20:26:05;;;;;;;3.03;2.10;;;19.10;68.30;;;;;;21082871;28;20085;-76
2021/09/04 20:36:16;;;;;;;6.07;2.83;;;19.10;67.50;;;;;;21047997;28;20474;-76
2021/09/04 20:46:17;;;;;;;4.88;2.75;;;19.10;67.40;;;;;;21049678;28;20114;-75
2021/09/04 20:56:17;;;;;;;4.85;2.80;;;19.10;67.30;;;;;;21027543;28;20446;-76
2021/09/04 21:06:18;;;;;;;5.00;2.97;;;19.10;67.30;;;;;;21044010;28;20064;-76
2021/09/04 21:16:18;;;;;;;3.80;2.85;;;19.10;67.20;;;;;;21062108;28;20043;-74
2021/09/04 21:26:19;;;;;;;4.13;2.55;;;19.00;67.10;;;;;;21062087;28;20035;-75
2021/09/04 21:36:20;;;;;;;4.82;3.20;;;19.00;67.10;;;;;;21043633;28;20527;-75
2021/09/04 21:46:20;;;;;;;4.40;2.55;;;19.00;67.00;;;;;;21085143;28;20067;-74
2021/09/04 21:56:21;;;;;;;4.18;2.33;;;19.00;66.90;;;;;;21088441;28;20028;-76
2021/09/04 22:06:21;;;;;;;4.75;2.72;;;19.00;66.90;;;;;;21072020;28;20044;-76
2021/09/04 22:16:22;;;;;;;4.57;2.30;;;19.00;66.90;;;;;;21088015;28;20081;-75
2021/09/04 22:26:23;;;;;;;7.45;2.85;;;18.90;66.90;;;;;;21068831;28;20131;-74
2021/09/04 22:36:29;;;;;;;4.70;3.33;;;19.00;66.90;;;;;;21103285;28;20028;-75
2021/09/04 22:46:30;;;;;;;4.32;2.30;;;18.90;66.90;;;;;;21087054;28;20059;-75
2021/09/04 22:56:30;;;;;;;5.35;2.55;;;18.90;66.90;;;;;;21040111;28;20032;-75
2021/09/04 23:06:31;;;;;;;5.20;2.80;;;18.90;66.90;;;;;;21055167;28;20048;-75
2021/09/04 23:16:33;;;;;;;3.58;2.17;;;18.90;66.90;;;;;;21070303;28;20053;-75
2021/09/04 23:26:34;;;;;;;4.65;2.85;;;18.90;66.90;;;;;;21069916;28;20040;-75
2021/09/04 23:36:34;;;;;;;4.78;2.60;;;18.90;66.80;;;;;;21068619;28;20110;-75
2021/09/04 23:46:35;;;;;;;4.10;2.30;;;18.90;66.70;;;;;;21085020;28;20032;-74
2021/09/04 23:56:35;;;;;;;4.88;2.30;;;18.90;66.60;;;;;;21084560;28;20453;-74
